Main page
METAR-TAF:

METAR-TAF

Airports :

Ilam, Iran

Ilam Airport

latitude: 33-35-09N, longitude: 046-24-20E, elevation: 1334 m

Current weather observation

The report was made 27 minutes ago, at 04:30 UTC
Wind 4 kt from the East/Southeast
Temperature 28°C
Humidity 19%
Pressure 1015 hPa
Visibility 10 km or more
no clouds below 1500 m and no cumulonimbus

METAR: OICI 240430Z 12004KT CAVOK 28/02 Q1015 A2998

Time: 09:27 (04:57 UTC)

Forecast

The report was made 5 hours and 57 minutes ago, at 23:00 UTC
Forecast valid from 24 at 00 UTC to 25 at 06 UTC
Wind 8 kt from the Northwest
Visibility 10 km or more
no clouds below 1500 m and no cumulonimbus
Temporary
from 24 at 12 UTC to 24 at 16 UTC
Wind 14 kt from the West/Southwest

TAF: OICI 232300Z 2400/2506 32004MPS CAVOK TEMPO 2412/2416 24007MPS

Weather observations and forecasts of more than 4000 airports (METAR and TAF reports).

The available stations are represented by yellow and red dots on the map.

Hover mouse over dot to see the name of the station.

Then click to see weather observations and forecasts.

To change the map : click on the green buttons with a black cross to zoom in, on the green button with a dash to zoom out, or on the green arrows for adjacent maps.


METAR-TAF: